East Granville, Vermont
Current Conditions -  °F | °C
As of 6:51 PM on Tuesday 25 Nov 2014 (Local Time) from KMPV Reporting Station
Few Clouds Few Clouds  
Wind Chill: 37°   Ceiling: Unl
Heat Index: 40°   Visibility: 10mi
Dew Point: 22°   Wind: 5mph
Humidity: 49%   Direction: 200°SSW
Pressure: 29.99"   Gusts: NA
Location:  44.0701°N, 72.7276°W
Report Text: KMPV 252351Z AUTO 20004KT 10SM FEW055 04/M06 A2999 RMK AO2 SLP163 T00441056 10083 20033 51017
Loading
Personal Weather Stations






























Interactive Weather Map New forecast layout! Learn more

10-Day Weather Forecast

Advertisements
Track Severe Weather on mobile